CFUBG KDET-KDAB
Flight info
| Callsign | CFUBG |
|---|---|
| Flight time | N/A |
| Altitude | 29000 |
| Route | LIDDS4 LIDDS DJB J85 SPA TYDOE KYLEG TTHOR3 |
| Aircraft | SF50/L-SDGRWY/L |
Departure
| Time | 2026-04-25 11:34 |
|---|---|
| Airport | Coleman A. Young Municipal Airport (KDET) |
Arrival
| Time | N/A |
|---|---|
| Airport | Daytona Beach International Airport (KDAB) |
| Time | Latitude | Longitude | Altitude | Speed | Heading |
|---|---|---|---|---|---|
| 2026-04-25 11:25 | 42.40690 | -83.00296 | 627 ft | 0 kts | 153° |
| 2026-04-25 11:31 | 42.40690 | -83.00295 | 627 ft | 0 kts | 160° |
| 2026-04-25 11:31 | 42.40688 | -83.00296 | 627 ft | 1 kts | 215° |
| 2026-04-25 11:31 | 42.40686 | -83.00299 | 627 ft | 0 kts | 248° |
| 2026-04-25 11:32 | 42.40682 | -83.00313 | 632 ft | 0 kts | 243° |
| 2026-04-25 11:32 | 42.40677 | -83.00326 | 630 ft | 6 kts | 244° |
| 2026-04-25 11:33 | 42.40647 | -83.00404 | 632 ft | 9 kts | 240° |
| 2026-04-25 11:33 | 42.40647 | -83.00470 | 634 ft | 6 kts | 321° |
| 2026-04-25 11:33 | 42.40649 | -83.00472 | 634 ft | 0 kts | 320° |
| 2026-04-25 11:33 | 42.40743 | -83.00566 | 629 ft | 44 kts | 323° |
| 2026-04-25 11:34 | 42.41140 | -83.00969 | 631 ft | 95 kts | 321° |
| 2026-04-25 11:34 | 42.41714 | -83.01528 | 885 ft | 108 kts | 326° |
| 2026-04-25 11:34 | 42.42384 | -83.02115 | 1188 ft | 117 kts | 328° |
| 2026-04-25 11:34 | 42.43037 | -83.02807 | 1498 ft | 127 kts | 320° |
| 2026-04-25 11:35 | 42.43698 | -83.03640 | 1853 ft | 128 kts | 321° |
| 2026-04-25 11:35 | 42.44330 | -83.04476 | 2196 ft | 130 kts | 309° |
| 2026-04-25 11:35 | 42.44670 | -83.05615 | 2477 ft | 138 kts | 284° |
| 2026-04-25 11:35 | 42.44426 | -83.06934 | 2726 ft | 162 kts | 243° |
| 2026-04-25 11:36 | 42.43434 | -83.07869 | 3024 ft | 188 kts | 195° |
| 2026-04-25 11:36 | 42.42158 | -83.07606 | 3522 ft | 190 kts | 149° |
| 2026-04-25 11:36 | 42.41132 | -83.06483 | 3995 ft | 190 kts | 136° |
| 2026-04-25 11:36 | 42.40117 | -83.05321 | 4454 ft | 193 kts | 141° |
| 2026-04-25 11:37 | 42.39038 | -83.04253 | 4890 ft | 195 kts | 143° |
| 2026-04-25 11:37 | 42.37928 | -83.03180 | 5334 ft | 196 kts | 143° |
| 2026-04-25 11:37 | 42.36812 | -83.02096 | 5759 ft | 198 kts | 142° |
| 2026-04-25 11:37 | 42.35686 | -83.00997 | 6172 ft | 201 kts | 142° |
| 2026-04-25 11:38 | 42.34547 | -82.99889 | 6582 ft | 202 kts | 142° |
| 2026-04-25 11:38 | 42.33406 | -82.98779 | 6985 ft | 202 kts | 142° |
| 2026-04-25 11:38 | 42.32260 | -82.97663 | 7371 ft | 204 kts | 142° |
| 2026-04-25 11:38 | 42.31106 | -82.96543 | 7771 ft | 205 kts | 142° |
| 2026-04-25 11:39 | 42.29948 | -82.95416 | 8166 ft | 205 kts | 142° |
| 2026-04-25 11:39 | 42.28784 | -82.94286 | 8551 ft | 206 kts | 142° |
| 2026-04-25 11:39 | 42.27616 | -82.93149 | 8938 ft | 207 kts | 142° |
| 2026-04-25 11:39 | 42.26457 | -82.92022 | 9315 ft | 209 kts | 142° |
| 2026-04-25 11:40 | 42.25275 | -82.90875 | 9690 ft | 210 kts | 142° |
| 2026-04-25 11:40 | 42.24092 | -82.89724 | 10039 ft | 210 kts | 142° |
| 2026-04-25 11:40 | 42.22899 | -82.88568 | 10369 ft | 212 kts | 142° |
| 2026-04-25 11:40 | 42.21698 | -82.87400 | 10708 ft | 213 kts | 142° |
| 2026-04-25 11:41 | 42.20491 | -82.86232 | 11049 ft | 214 kts | 143° |
| 2026-04-25 11:41 | 42.19280 | -82.85057 | 11386 ft | 215 kts | 142° |
| 2026-04-25 11:41 | 42.18062 | -82.83878 | 11729 ft | 216 kts | 143° |
| 2026-04-25 11:41 | 42.16837 | -82.82692 | 12067 ft | 218 kts | 143° |
| 2026-04-25 11:42 | 42.15605 | -82.81500 | 12406 ft | 219 kts | 143° |
| 2026-04-25 11:42 | 42.14360 | -82.80299 | 12757 ft | 220 kts | 143° |
| 2026-04-25 11:42 | 42.13115 | -82.79095 | 13102 ft | 221 kts | 143° |
| 2026-04-25 11:42 | 42.11860 | -82.77886 | 13444 ft | 222 kts | 143° |
| 2026-04-25 11:43 | 42.10617 | -82.76685 | 13772 ft | 224 kts | 143° |
| 2026-04-25 11:43 | 42.09331 | -82.75447 | 14092 ft | 224 kts | 143° |
| 2026-04-25 11:43 | 42.08113 | -82.74184 | 14388 ft | 224 kts | 133° |
| 2026-04-25 11:43 | 42.07242 | -82.72466 | 14696 ft | 222 kts | 112° |
| 2026-04-25 11:44 | 42.06796 | -82.70505 | 14995 ft | 220 kts | 99° |
| 2026-04-25 11:44 | 42.06431 | -82.68494 | 15304 ft | 222 kts | 101° |
| 2026-04-25 11:44 | 42.06043 | -82.66478 | 15615 ft | 223 kts | 101° |
| 2026-04-25 11:44 | 42.05664 | -82.64440 | 15923 ft | 224 kts | 101° |
| 2026-04-25 11:45 | 42.05286 | -82.62398 | 16236 ft | 226 kts | 101° |
| 2026-04-25 11:45 | 42.04902 | -82.60339 | 16547 ft | 227 kts | 101° |
| 2026-04-25 11:45 | 42.04523 | -82.58296 | 16863 ft | 228 kts | 101° |
| 2026-04-25 11:45 | 42.04133 | -82.56214 | 17170 ft | 230 kts | 101° |
| 2026-04-25 11:46 | 42.03740 | -82.54122 | 17489 ft | 231 kts | 103° |
| 2026-04-25 11:46 | 42.03031 | -82.52163 | 17782 ft | 235 kts | 125° |
| 2026-04-25 11:46 | 42.01874 | -82.50609 | 18105 ft | 236 kts | 146° |
| 2026-04-25 11:46 | 42.00412 | -82.49626 | 18399 ft | 235 kts | 161° |
| 2026-04-25 11:47 | 41.98884 | -82.48844 | 18686 ft | 235 kts | 161° |
| 2026-04-25 11:47 | 41.97364 | -82.48035 | 18995 ft | 235 kts | 161° |
| 2026-04-25 11:47 | 41.95840 | -82.47238 | 19295 ft | 235 kts | 162° |
| 2026-04-25 11:47 | 41.94338 | -82.46455 | 19602 ft | 235 kts | 162° |
| 2026-04-25 11:48 | 41.92814 | -82.45662 | 19910 ft | 235 kts | 162° |
| 2026-04-25 11:48 | 41.91293 | -82.44869 | 20220 ft | 234 kts | 163° |
| 2026-04-25 11:48 | 41.89767 | -82.44073 | 20531 ft | 234 kts | 163° |
| 2026-04-25 11:48 | 41.88250 | -82.43284 | 20852 ft | 234 kts | 163° |
| 2026-04-25 11:49 | 41.86735 | -82.42494 | 21202 ft | 232 kts | 164° |
| 2026-04-25 11:49 | 41.85236 | -82.41715 | 21556 ft | 230 kts | 165° |
| 2026-04-25 11:49 | 41.83745 | -82.40939 | 21904 ft | 229 kts | 165° |
| 2026-04-25 11:49 | 41.82266 | -82.40171 | 22263 ft | 227 kts | 165° |
| 2026-04-25 11:50 | 41.80814 | -82.39416 | 22611 ft | 225 kts | 166° |
| 2026-04-25 11:50 | 41.79356 | -82.38659 | 22967 ft | 224 kts | 166° |
| 2026-04-25 11:50 | 41.77909 | -82.37906 | 23327 ft | 222 kts | 167° |
| 2026-04-25 11:50 | 41.76475 | -82.37162 | 23640 ft | 221 kts | 167° |
| 2026-04-25 11:51 | 41.75042 | -82.36417 | 23915 ft | 220 kts | 167° |
| 2026-04-25 11:51 | 41.73617 | -82.35678 | 24181 ft | 220 kts | 167° |
| 2026-04-25 11:51 | 41.72193 | -82.34939 | 24457 ft | 219 kts | 167° |
| 2026-04-25 11:51 | 41.70790 | -82.34212 | 24724 ft | 218 kts | 167° |
| 2026-04-25 11:52 | 41.69373 | -82.33478 | 24987 ft | 218 kts | 167° |
| 2026-04-25 11:52 | 41.67959 | -82.32745 | 25247 ft | 218 kts | 167° |
| 2026-04-25 11:52 | 41.66546 | -82.32013 | 25521 ft | 217 kts | 168° |
| 2026-04-25 11:52 | 41.65138 | -82.31284 | 25790 ft | 217 kts | 168° |
| 2026-04-25 11:53 | 41.63732 | -82.30558 | 26043 ft | 216 kts | 168° |
| 2026-04-25 11:53 | 41.62324 | -82.29829 | 26296 ft | 216 kts | 168° |
| 2026-04-25 11:53 | 41.60923 | -82.29106 | 26554 ft | 215 kts | 168° |
| 2026-04-25 11:53 | 41.59524 | -82.28384 | 26807 ft | 215 kts | 168° |
| 2026-04-25 11:54 | 41.58125 | -82.27663 | 27060 ft | 215 kts | 168° |
| 2026-04-25 11:54 | 41.56748 | -82.26954 | 27306 ft | 214 kts | 168° |
| 2026-04-25 11:54 | 41.53968 | -82.25523 | 27803 ft | 214 kts | 168° |
| 2026-04-25 11:55 | 41.52579 | -82.24808 | 28045 ft | 214 kts | 168° |
| 2026-04-25 11:55 | 41.51190 | -82.24094 | 28295 ft | 213 kts | 168° |
| 2026-04-25 11:55 | 41.49808 | -82.23383 | 28543 ft | 213 kts | 168° |
| 2026-04-25 11:55 | 41.48421 | -82.22671 | 28786 ft | 213 kts | 168° |
| 2026-04-25 11:56 | 41.47023 | -82.21956 | 28886 ft | 219 kts | 168° |
| 2026-04-25 11:56 | 41.45567 | -82.21215 | 28902 ft | 228 kts | 168° |
| 2026-04-25 11:56 | 41.44051 | -82.20435 | 28897 ft | 238 kts | 167° |
| 2026-04-25 11:56 | 41.42484 | -82.19629 | 28895 ft | 245 kts | 167° |
| 2026-04-25 11:57 | 41.40882 | -82.18808 | 28903 ft | 252 kts | 167° |
| 2026-04-25 11:57 | 41.39221 | -82.17955 | 28900 ft | 258 kts | 167° |
| 2026-04-25 11:57 | 41.37521 | -82.17083 | 28897 ft | 264 kts | 166° |
| 2026-04-25 11:57 | 41.35785 | -82.16257 | 28895 ft | 264 kts | 172° |